Time;durP1;ratioP1;P1;durP2;ratioP2;P2;SDS_P1;SDS_P2;PMS_P1;PMS_P2;Temp;Humidity;BMP_temperature;BMP_pressure;BME280_temperature;BME280_humidity;BME280_pressure;Samples;Min_cycle;Max_cycle;Signal;HPM_P1;HPM_P2
2021/11/08 00:00:49;;;;;;;10.35;6.03;;;;;;;7.93;79.55;96997.78;4981002;28;20058;-78
2021/11/08 00:03:22;;;;;;;8.50;5.75;;;;;;;7.91;79.42;96994.53;4974599;28;20058;-77
2021/11/08 00:05:50;;;;;;;10.07;6.20;;;;;;;7.91;79.49;96995.34;4973340;28;20059;-77
2021/11/08 00:08:18;;;;;;;8.35;5.72;;;;;;;7.89;79.30;97001.66;4973208;28;20050;-77
2021/11/08 00:10:47;;;;;;;8.05;5.88;;;;;;;7.89;79.59;97004.25;4973224;28;20050;-77
2021/11/08 00:13:15;;;;;;;8.80;6.88;;;;;;;7.87;79.71;97001.84;4973057;28;20050;-77
2021/11/08 00:15:49;;;;;;;8.23;5.53;;;;;;;7.84;79.88;97005.53;4973055;28;20047;-77
2021/11/08 00:18:26;;;;;;;9.10;6.00;;;;;;;7.84;80.14;97009.91;4973295;28;20055;-77
2021/11/08 00:20:55;;;;;;;9.45;6.03;;;;;;;7.83;79.88;97013.50;4974986;28;20050;-77
2021/11/08 00:23:23;;;;;;;10.02;5.63;;;;;;;7.83;79.67;97013.50;4976514;28;20074;-77
2021/11/08 00:25:50;;;;;;;8.82;6.10;;;;;;;7.81;79.61;97016.25;4979288;28;20053;-77
2021/11/08 00:28:20;;;;;;;10.38;6.05;;;;;;;7.79;79.24;97020.78;4977708;28;20053;-77
2021/11/08 00:30:49;;;;;;;8.68;6.43;;;;;;;7.75;79.51;97019.44;4977006;28;20109;-77
2021/11/08 00:33:19;;;;;;;10.20;5.90;;;;;;;7.73;79.46;97029.16;4976575;28;20468;-77
2021/11/08 00:35:48;;;;;;;9.10;5.57;;;;;;;7.72;79.47;97011.97;4977352;28;20058;-77
2021/11/08 00:38:17;;;;;;;7.65;5.07;;;;;;;7.69;79.21;97017.47;4976500;28;20066;-77
2021/11/08 00:40:46;;;;;;;9.55;5.65;;;;;;;7.67;79.38;97016.78;4976721;28;20054;-77
2021/11/08 00:43:14;;;;;;;9.32;5.88;;;;;;;7.65;79.56;97010.94;4976666;28;20453;-77
2021/11/08 00:45:43;;;;;;;8.73;5.70;;;;;;;7.64;79.60;97012.72;4976443;28;20055;-77
2021/11/08 00:48:12;;;;;;;7.47;5.68;;;;;;;7.64;79.57;97017.09;4976587;28;20047;-77
2021/11/08 00:50:42;;;;;;;8.23;5.32;;;;;;;7.61;79.75;97026.03;4976051;28;20058;-77
2021/11/08 00:53:10;;;;;;;9.13;5.30;;;;;;;7.60;79.78;97031.38;4976535;28;20054;-77
2021/11/08 00:55:39;;;;;;;9.40;5.30;;;;;;;7.56;78.44;97024.84;4976330;28;20049;-77
2021/11/08 00:58:13;;;;;;;7.97;5.20;;;;;;;7.52;78.90;97036.50;4974946;28;20055;-77
2021/11/08 01:00:41;;;;;;;8.30;5.47;;;;;;;7.52;79.32;97020.91;4974240;28;20058;-77
2021/11/08 01:03:10;;;;;;;8.15;6.18;;;;;;;7.54;79.80;97019.81;4974514;28;20505;-77
2021/11/08 01:05:38;;;;;;;8.27;5.07;;;;;;;7.54;78.72;97026.78;4974758;28;20113;-77
2021/11/08 01:08:07;;;;;;;8.93;5.30;;;;;;;7.54;79.42;97042.34;4974648;28;20047;-77
2021/11/08 01:10:35;;;;;;;8.73;5.80;;;;;;;7.56;79.61;97041.22;4974435;28;20051;-77
2021/11/08 01:13:03;;;;;;;12.38;5.25;;;;;;;7.54;79.42;97042.34;4974460;28;20076;-77
2021/11/08 01:15:30;;;;;;;7.50;5.13;;;;;;;7.53;78.74;97038.13;4990097;23;20055;-80
2021/11/08 01:17:58;;;;;;;10.77;5.55;;;;;;;7.52;79.20;97047.72;4998660;28;20073;-79
2021/11/08 01:20:32;;;;;;;7.50;4.88;;;;;;;7.51;79.36;97053.84;4997140;28;20054;-80
2021/11/08 01:23:00;;;;;;;10.32;5.18;;;;;;;7.47;78.73;97051.72;4999105;28;20058;-78
2021/11/08 01:25:29;;;;;;;6.95;5.07;;;;;;;7.46;79.10;97050.09;4997970;28;20085;-78
2021/11/08 01:27:59;;;;;;;9.50;5.18;;;;;;;7.43;78.54;97048.59;4999318;28;20134;-77
2021/11/08 01:30:28;;;;;;;11.93;5.57;;;;;;;7.41;77.44;97050.53;4997808;28;20531;-76
2021/11/08 01:33:00;;;;;;;8.75;4.88;;;;;;;7.38;77.05;97059.44;4997751;28;20054;-77
2021/11/08 01:35:34;;;;;;;10.60;5.40;;;;;;;7.34;76.98;97054.69;4995501;28;20062;-79
2021/11/08 01:38:06;;;;;;;10.20;5.35;;;;;;;7.30;76.90;97067.16;4997517;28;20061;-77
2021/11/08 01:40:36;;;;;;;9.48;5.47;;;;;;;7.26;76.62;97073.63;4997171;28;20432;-77
2021/11/08 01:43:05;;;;;;;8.73;6.05;;;;;;;7.21;76.66;97066.28;4997357;28;20054;-78
2021/11/08 01:45:33;;;;;;;8.52;6.28;;;;;;;7.20;77.67;97071.63;4997499;28;20050;-76
2021/11/08 01:48:01;;;;;;;10.18;6.13;;;;;;;7.22;77.42;97067.09;4996976;28;20050;-77
2021/11/08 01:50:28;;;;;;;11.23;6.72;;;;;;;7.23;77.31;97069.53;4997141;28;20452;-77
2021/11/08 01:52:56;;;;;;;10.35;6.10;;;;;;;7.22;76.96;97067.09;4996557;28;20042;-78
2021/11/08 01:55:26;;;;;;;9.45;6.68;;;;;;;7.22;77.02;97070.50;4997151;28;20050;-76
2021/11/08 01:57:55;;;;;;;6.80;5.30;;;;;;;7.23;78.03;97071.31;4997255;28;20516;-79
2021/11/08 02:00:24;;;;;;;12.13;6.63;;;;;;;7.26;77.51;97068.44;4996347;28;20074;-76
2021/11/08 02:02:52;;;;;;;6.95;5.78;;;;;;;7.30;77.77;97074.94;4996729;28;20046;-77
2021/11/08 02:05:20;;;;;;;7.35;6.10;;;;;;;7.33;78.79;97071.25;4996495;28;20052;-77
2021/11/08 02:07:49;;;;;;;11.48;7.40;;;;;;;7.37;78.98;97065.59;4997109;28;20512;-77
2021/11/08 02:10:20;;;;;;;9.27;6.10;;;;;;;7.37;78.57;97063.00;4996018;28;20058;-78
2021/11/08 02:12:48;;;;;;;8.85;6.18;;;;;;;7.40;78.85;97074.88;4996109;28;20046;-77
2021/11/08 02:15:20;;;;;;;10.02;5.80;;;;;;;7.41;79.10;97072.13;4996518;28;20050;-77
2021/11/08 02:17:49;;;;;;;11.38;6.43;;;;;;;7.42;78.79;97072.94;4996374;28;20058;-77
2021/11/08 02:20:20;;;;;;;10.38;6.30;;;;;;;7.41;79.32;97082.50;4997091;28;20054;-80
2021/11/08 02:22:50;;;;;;;11.18;5.72;;;;;;;7.40;78.54;97080.06;4998020;28;20132;-79
2021/11/08 02:25:18;;;;;;;12.18;5.75;;;;;;;7.34;77.72;97065.06;4997567;28;20571;-78
2021/11/08 02:27:46;;;;;;;10.27;5.97;;;;;;;7.31;78.31;97066.19;4996316;28;20053;-77
2021/11/08 02:30:14;;;;;;;7.18;5.35;;;;;;;7.31;78.20;97073.97;4996334;28;20061;-79
2021/11/08 02:32:42;;;;;;;6.40;4.32;;;;;;;7.29;78.27;97078.50;4996724;28;20054;-79
2021/11/08 02:35:12;;;;;;;11.07;6.18;;;;;;;7.29;78.82;97075.91;5011479;28;20047;-77
2021/11/08 02:37:42;;;;;;;9.40;5.68;;;;;;;7.23;77.57;97079.09;5011086;28;20046;-78
2021/11/08 02:40:17;;;;;;;10.15;6.55;;;;;;;7.15;76.98;97071.22;4996949;28;20057;-78
2021/11/08 02:42:47;;;;;;;7.90;5.38;;;;;;;7.09;77.64;97075.25;4996813;28;20054;-78
2021/11/08 02:45:15;;;;;;;6.28;5.22;;;;;;;7.10;77.91;97074.28;5002070;28;20046;-82
2021/11/08 02:47:43;;;;;;;6.18;5.20;;;;;;;7.08;78.01;97077.97;5000398;28;20043;-80
2021/11/08 02:50:12;;;;;;;9.93;5.57;;;;;;;7.03;76.93;97072.44;4993885;28;20046;-77
2021/11/08 02:52:42;;;;;;;8.88;5.80;;;;;;;6.97;77.67;97074.63;4994246;28;20058;-78
2021/11/08 02:55:09;;;;;;;11.52;6.00;;;;;;;6.92;77.05;97071.66;4994556;28;20069;-77
2021/11/08 02:57:38;;;;;;;12.55;6.00;;;;;;;6.83;76.33;97076.94;4994441;28;20046;-78
2021/11/08 03:00:07;;;;;;;12.27;6.00;;;;;;;6.69;75.98;97071.28;4995126;28;20085;-77
2021/11/08 03:02:37;;;;;;;10.15;5.55;;;;;;;6.59;76.43;97076.50;4996356;28;20424;-79
2021/11/08 03:05:06;;;;;;;8.05;5.57;;;;;;;6.56;77.60;97076.81;4997563;28;20053;-78
2021/11/08 03:07:37;;;;;;;12.13;6.13;;;;;;;6.53;76.79;97082.25;4997293;28;20059;-77
2021/11/08 03:10:09;;;;;;;10.50;5.53;;;;;;;6.46;76.05;97083.81;4997122;28;20046;-76
2021/11/08 03:12:38;;;;;;;8.38;5.20;;;;;;;6.41;76.47;97083.44;4996918;28;20057;-78
2021/11/08 03:15:09;;;;;;;8.00;5.45;;;;;;;6.40;77.68;97080.00;4996646;28;20042;-79
2021/11/08 03:17:41;;;;;;;7.15;5.13;;;;;;;6.40;77.64;97076.59;4996679;28;20046;-77
2021/11/08 03:20:12;;;;;;;6.10;5.47;;;;;;;6.38;77.83;97074.19;4996467;28;20050;-77
2021/11/08 03:22:46;;;;;;;7.43;5.32;;;;;;;6.40;78.67;97081.78;4997474;28;20050;-76
2021/11/08 03:25:22;;;;;;;9.02;5.70;;;;;;;6.46;79.79;97080.41;4997499;28;20053;-78
2021/11/08 03:27:51;;;;;;;11.00;6.53;;;;;;;6.44;78.27;97090.09;4996992;28;20054;-78
2021/11/08 03:30:22;;;;;;;13.25;6.95;;;;;;;6.35;77.10;97089.19;4996819;28;20050;-79
2021/11/08 03:32:51;;;;;;;8.30;5.30;;;;;;;6.26;76.65;97085.69;4997107;28;20054;-77
2021/11/08 03:35:21;;;;;;;9.18;5.68;;;;;;;6.19;76.43;97089.81;4996342;28;20046;-78
2021/11/08 03:37:50;;;;;;;12.38;5.57;;;;;;;6.13;76.17;97088.59;4996052;28;20061;-76
2021/11/08 03:40:22;;;;;;;10.48;4.93;;;;;;;6.07;76.02;97102.09;4995351;28;20054;-77
2021/11/08 03:42:55;;;;;;;8.77;5.45;;;;;;;6.02;75.54;97093.13;4996035;28;20141;-79
2021/11/08 03:45:23;;;;;;;12.68;6.03;;;;;;;5.91;76.19;97099.25;4996416;28;20050;-80
2021/11/08 03:47:52;;;;;;;8.63;5.20;;;;;;;5.82;76.14;97098.31;4995981;28;20058;-79
2021/11/08 03:50:20;;;;;;;8.10;5.40;;;;;;;5.80;76.57;97100.22;4996092;28;20058;-77
2021/11/08 03:52:49;;;;;;;7.90;5.32;;;;;;;5.83;76.88;97096.53;4996721;28;20054;-77
2021/11/08 03:55:17;;;;;;;11.77;6.15;;;;;;;5.85;76.92;97095.44;4996058;28;20050;-77
2021/11/08 03:57:48;;;;;;;12.60;5.85;;;;;;;5.84;76.77;97108.53;4996286;28;20054;-78
2021/11/08 04:00:17;;;;;;;7.72;5.50;;;;;;;5.82;76.91;97100.91;4999889;28;20054;-80
2021/11/08 04:02:45;;;;;;;11.70;6.18;;;;;;;5.82;76.95;97097.50;5000370;28;20057;-78
2021/11/08 04:05:14;;;;;;;13.07;6.45;;;;;;;5.76;76.91;97101.47;5000490;28;20046;-78
2021/11/08 04:07:42;;;;;;;10.93;6.25;;;;;;;5.72;77.03;97108.69;5000331;28;20046;-77
2021/11/08 04:10:11;;;;;;;13.75;5.70;;;;;;;5.74;77.68;97111.94;4999828;28;20046;-76
2021/11/08 04:12:39;;;;;;;9.05;5.72;;;;;;;5.77;77.67;97111.69;5000269;28;20058;-79
2021/11/08 04:15:10;;;;;;;11.18;5.45;;;;;;;5.80;77.80;97120.94;5000514;28;20046;-79
2021/11/08 04:17:42;;;;;;;9.88;5.47;;;;;;;5.85;78.39;97117.94;4999702;28;20061;-78
2021/11/08 04:20:12;;;;;;;8.93;5.87;;;;;;;5.89;77.82;97114.13;5000115;28;20054;-78
2021/11/08 04:22:39;;;;;;;7.63;4.63;;;;;;;5.91;77.35;97127.75;5001227;28;20054;-76
2021/11/08 04:25:08;;;;;;;10.95;5.55;;;;;;;5.93;77.19;97123.25;5001677;28;20058;-79
2021/11/08 04:27:37;;;;;;;12.75;6.03;;;;;;;5.95;78.08;97134.31;4999459;28;20050;-76
2021/11/08 04:30:07;;;;;;;9.00;5.13;;;;;;;5.98;77.77;97131.44;4999363;28;20053;-79
2021/11/08 04:32:47;;;;;;;13.50;6.50;;;;;;;5.99;77.44;97125.28;4999407;28;20054;-78
2021/11/08 04:35:18;;;;;;;10.45;5.07;;;;;;;6.04;78.08;97124.88;4999920;28;20050;-78
2021/11/08 04:38:09;;;;;;;11.18;5.97;;;;;;;6.08;78.23;97129.63;4999425;28;20058;-77
2021/11/08 04:40:42;;;;;;;7.93;5.72;;;;;;;6.09;77.82;97136.44;4998510;28;20058;-77
2021/11/08 04:43:14;;;;;;;;;;;;;;;6.13;78.68;97127.44;5001092;28;20058;-77
2021/11/08 04:46:09;;;;;;;12.82;7.75;;;;;;;6.17;77.92;97138.34;5000723;28;19929;-77
2021/11/08 04:48:59;;;;;;;10.70;5.97;;;;;;;6.21;78.16;97128.50;4999921;28;20054;-79
2021/11/08 04:51:36;;;;;;;10.57;6.53;;;;;;;6.22;77.53;97125.78;4999719;28;20054;-80
2021/11/08 04:54:11;;;;;;;9.45;6.18;;;;;;;6.25;78.44;97129.84;4999819;28;20054;-78
2021/11/08 05:21:41;;;;;;;9.93;5.72;;;;;;;6.38;77.88;97135.53;4999718;28;20058;-79
2021/11/08 05:24:32;;;;;;;8.63;5.63;;;;;;;6.38;77.96;97128.59;4999424;28;20058;-78
2021/11/08 05:29:59;;;;;;;14.02;6.68;;;;;;;6.35;77.21;97138.41;4997753;28;20058;-76
2021/11/08 05:32:30;;;;;;;14.80;5.97;;;;;;;6.27;77.48;97146.88;4998465;28;20054;-77
2021/11/08 05:34:57;;;;;;;10.07;5.38;;;;;;;6.24;77.53;97144.59;5008640;28;20050;-81
2021/11/08 05:37:26;;;;;;;9.30;5.47;;;;;;;6.26;78.11;97145.25;5008015;28;20492;-79
2021/11/08 05:39:55;;;;;;;12.40;6.95;;;;;;;6.29;77.90;97141.56;4999116;28;20046;-78
2021/11/08 05:42:24;;;;;;;14.93;7.07;;;;;;;6.30;78.19;97138.84;4998784;28;20061;-78
2021/11/08 05:44:54;;;;;;;16.05;7.88;;;;;;;6.33;78.01;97143.72;5004259;28;20053;-76
2021/11/08 05:47:22;;;;;;;11.13;6.35;;;;;;;6.34;77.74;97140.19;5007699;28;20444;-78
2021/11/08 05:49:51;;;;;;;12.02;6.38;;;;;;;6.34;77.93;97155.75;4998237;28;20046;-79
2021/11/08 05:52:19;;;;;;;11.93;7.13;;;;;;;6.31;77.28;97160.38;4998618;28;20429;-78
2021/11/08 05:54:49;;;;;;;10.43;6.75;;;;;;;6.28;77.96;97163.28;4998502;28;20057;-77
2021/11/08 06:50:00;;;;;;;13.13;7.20;;;;;;;5.83;76.14;97208.69;5007443;28;20061;-87
2021/11/08 06:52:31;;;;;;;19.17;8.18;;;;;;;5.81;76.42;97212.38;5004352;28;20052;-83
2021/11/08 06:55:03;;;;;;;10.52;6.75;;;;;;;5.82;76.86;97201.06;5000194;28;20051;-83
2021/11/08 06:57:36;;;;;;;16.52;9.13;;;;;;;5.88;77.34;97200.50;4991417;28;20050;-83
2021/11/08 07:00:06;;;;;;;12.57;7.25;;;;;;;5.87;76.08;97214.41;5001524;28;20452;-81
2021/11/08 07:02:33;;;;;;;16.40;8.10;;;;;;;5.83;76.19;97223.41;5003643;28;20046;-83
2021/11/08 07:05:01;;;;;;;18.67;9.32;;;;;;;5.78;75.97;97216.84;5003104;28;20416;-79
2021/11/08 07:07:28;;;;;;;20.52;9.32;;;;;;;5.71;75.95;97223.53;5002740;28;20047;-78
2021/11/08 07:09:56;;;;;;;17.70;8.52;;;;;;;5.69;75.76;97228.03;5002334;28;20058;-79
2021/11/08 07:12:24;;;;;;;17.40;8.32;;;;;;;5.72;76.07;97229.53;5001678;28;20054;-81
2021/11/08 07:14:51;;;;;;;19.60;9.48;;;;;;;5.72;75.36;97232.94;5002403;28;20053;-81
2021/11/08 07:17:20;;;;;;;16.20;8.30;;;;;;;5.73;75.87;97231.19;5002092;28;20042;-79
2021/11/08 07:19:48;;;;;;;21.38;8.15;;;;;;;5.72;75.97;97235.50;5002817;28;20535;-77
2021/11/08 07:22:15;;;;;;;17.23;8.23;;;;;;;5.73;75.64;97241.53;5000939;28;20070;-80
2021/11/08 07:24:43;;;;;;;13.27;8.65;;;;;;;5.70;75.47;97240.00;5003630;28;20050;-80
2021/11/08 07:27:11;;;;;;;17.70;9.45;;;;;;;5.69;75.68;97238.38;5001278;28;20061;-77
2021/11/08 07:29:38;;;;;;;15.98;8.85;;;;;;;5.70;75.71;97244.38;5001219;28;20053;-79
2021/11/08 07:32:07;;;;;;;17.33;8.10;;;;;;;5.69;75.33;97248.75;5000697;28;20057;-78
2021/11/08 07:34:36;;;;;;;14.55;7.65;;;;;;;5.67;75.14;97245.47;4998479;28;20072;-80
2021/11/08 07:37:05;;;;;;;15.10;6.95;;;;;;;5.64;74.97;97247.50;4997147;28;20057;-81
2021/11/08 07:39:32;;;;;;;15.23;6.75;;;;;;;5.62;75.10;97242.47;4998751;28;20046;-80
2021/11/08 07:42:01;;;;;;;14.13;7.20;;;;;;;5.61;75.53;97246.00;4997314;28;20054;-78
2021/11/08 07:44:28;;;;;;;16.50;8.13;;;;;;;5.58;75.05;97248.88;4995623;28;20061;-82
2021/11/08 07:46:55;;;;;;;14.60;7.07;;;;;;;5.58;75.45;97251.47;4985669;28;20097;-78
2021/11/08 07:49:23;;;;;;;17.30;7.03;;;;;;;5.61;75.25;97246.00;4983987;28;20058;-77
2021/11/08 07:51:52;;;;;;;17.45;8.68;;;;;;;5.64;75.59;97248.34;4997441;28;20467;-81
2021/11/08 07:54:20;;;;;;;18.80;8.18;;;;;;;5.67;75.44;97247.25;4996493;28;20042;-79
2021/11/08 07:56:48;;;;;;;21.88;8.57;;;;;;;5.69;75.59;97233.22;4994278;28;20057;-78
2021/11/08 07:59:16;;;;;;;19.08;8.32;;;;;;;5.71;75.47;97239.06;4994155;28;20058;-78
2021/11/08 08:01:47;;;;;;;17.48;7.40;;;;;;;5.72;75.52;97238.09;4996062;28;20062;-78
2021/11/08 08:04:14;;;;;;;18.63;7.47;;;;;;;5.75;75.67;97240.44;4997955;28;20416;-78
2021/11/08 08:06:43;;;;;;;19.25;7.97;;;;;;;5.80;75.88;97244.41;4997730;28;20057;-79
2021/11/08 08:09:12;;;;;;;19.85;9.02;;;;;;;5.86;76.00;97249.00;4998310;28;20043;-78
2021/11/08 08:11:39;;;;;;;20.25;9.13;;;;;;;5.93;75.68;97234.59;4997747;28;20054;-81
2021/11/08 08:14:07;;;;;;;23.90;8.45;;;;;;;5.99;75.70;97239.22;4999304;28;20051;-79
2021/11/08 08:16:35;;;;;;;19.35;8.70;;;;;;;6.06;75.69;97240.34;5000352;28;20523;-78
2021/11/08 08:19:04;;;;;;;21.25;7.55;;;;;;;6.16;75.61;97241.13;5000348;28;20059;-78
2021/11/08 08:21:32;;;;;;;18.75;7.30;;;;;;;6.29;75.17;97240.03;5001931;28;20069;-81
2021/11/08 08:24:02;;;;;;;14.95;7.50;;;;;;;6.41;75.11;97236.34;5001444;28;20058;-80
2021/11/08 08:26:35;;;;;;;15.27;7.85;;;;;;;6.54;74.54;97243.81;5000652;28;20053;-80
2021/11/08 08:29:07;;;;;;;13.90;6.25;;;;;;;6.65;74.27;97245.38;4999659;28;20708;-77
2021/11/08 08:31:35;;;;;;;12.95;6.65;;;;;;;6.78;73.84;97235.53;5000704;28;20050;-80
2021/11/08 08:34:04;;;;;;;25.85;7.35;;;;;;;6.92;73.53;97240.25;5000645;28;20065;-78
2021/11/08 08:36:31;;;;;;;15.68;6.47;;;;;;;7.11;73.23;97235.94;5000880;28;20066;-79
2021/11/08 08:38:59;;;;;;;15.85;6.60;;;;;;;7.31;72.45;97237.47;5009026;28;20047;-85
2021/11/08 08:41:27;;;;;;;14.90;6.55;;;;;;;7.51;71.96;97237.34;5013742;28;20402;-87
2021/11/08 08:43:56;;;;;;;12.40;5.85;;;;;;;7.69;71.00;97240.78;5001764;28;20054;-84
2021/11/08 08:46:23;;;;;;;12.70;6.25;;;;;;;7.92;71.72;97240.34;4999621;28;20050;-83
2021/11/08 08:48:53;;;;;;;10.43;5.10;;;;;;;8.13;70.72;97238.22;5002036;28;20105;-89
2021/11/08 08:51:21;;;;;;;12.88;4.88;;;;;;;8.38;69.70;97230.63;5003155;28;20061;-88
2021/11/08 08:53:49;;;;;;;11.32;5.00;;;;;;;8.60;70.48;97240.56;5004657;28;20046;-85
2021/11/08 08:56:20;;;;;;;11.32;4.32;;;;;;;8.78;68.21;97237.06;5003513;28;20050;-88
2021/11/08 08:58:48;;;;;;;17.88;5.35;;;;;;;8.93;67.27;97238.13;5003853;28;20509;-82
2021/11/08 09:01:17;;;;;;;11.68;5.38;;;;;;;9.10;69.21;97241.63;5003432;28;20046;-84
2021/11/08 09:03:44;;;;;;;12.05;6.20;;;;;;;9.24;66.96;97242.81;5003374;28;20424;-79
2021/11/08 09:06:12;;;;;;;14.75;6.40;;;;;;;9.37;66.41;97237.16;5001343;28;20561;-82
2021/11/08 09:08:40;;;;;;;10.48;5.25;;;;;;;9.56;66.32;97236.06;5002454;28;20061;-89
2021/11/08 09:11:08;;;;;;;13.32;6.65;;;;;;;9.75;67.82;97240.16;5001057;28;20057;-83
2021/11/08 09:13:38;;;;;;;14.80;6.65;;;;;;;9.92;65.23;97241.81;4986009;28;20050;-85
2021/11/08 09:16:12;;;;;;;16.73;7.00;;;;;;;10.11;67.16;97240.69;5011901;28;20050;-88
2021/11/08 09:18:43;;;;;;;21.23;7.38;;;;;;;10.24;63.92;97246.22;5006012;28;20056;-86
2021/11/08 09:21:13;;;;;;;13.45;6.22;;;;;;;10.37;64.20;97244.97;5022554;28;20042;-82
2021/11/08 09:23:41;;;;;;;19.38;8.05;;;;;;;10.56;63.87;97238.56;5020806;28;20049;-79
2021/11/08 09:26:10;;;;;;;14.90;7.15;;;;;;;10.71;63.33;97250.78;5017565;28;20515;-80
2021/11/08 09:28:38;;;;;;;14.40;6.65;;;;;;;10.88;62.67;97245.50;5015498;28;20054;-83
2021/11/08 09:31:07;;;;;;;15.38;7.03;;;;;;;11.00;62.54;97253.78;5001787;28;20054;-83
2021/11/08 09:33:40;;;;;;;16.40;6.72;;;;;;;11.04;61.97;97253.31;5002053;28;20437;-88
2021/11/08 09:36:12;;;;;;;16.92;6.72;;;;;;;11.08;60.97;97254.56;5001426;28;20043;-85
2021/11/08 09:38:48;;;;;;;11.70;6.80;;;;;;;11.18;62.05;97251.78;5000389;28;20057;-80
2021/11/08 09:41:21;;;;;;;16.05;5.82;;;;;;;11.33;61.69;97251.88;4999465;28;20444;-81
2021/11/08 09:43:53;;;;;;;12.38;5.03;;;;;;;11.42;61.63;97250.03;4999922;28;20054;-81
2021/11/08 09:46:22;;;;;;;10.68;4.93;;;;;;;11.50;63.56;97242.97;4999873;28;20068;-84
2021/11/08 09:48:54;;;;;;;10.50;5.30;;;;;;;11.57;63.52;97250.94;5002965;28;20572;-80
2021/11/08 09:51:25;;;;;;;12.77;5.80;;;;;;;11.64;64.33;97254.50;5003173;28;20061;-82
2021/11/08 09:53:52;;;;;;;13.82;4.72;;;;;;;11.75;62.34;97256.69;5002811;28;20061;-83
2021/11/08 09:56:20;;;;;;;11.20;4.97;;;;;;;11.76;59.91;97257.50;5008091;28;20046;-82
2021/11/08 09:58:48;;;;;;;16.30;5.45;;;;;;;11.66;59.87;97262.16;5009396;28;20064;-82
2021/11/08 10:01:27;;;;;;;17.17;5.20;;;;;;;11.54;59.84;97259.09;5008088;28;20050;-86
2021/11/08 10:03:56;;;;;;;12.30;5.55;;;;;;;11.43;60.00;97262.91;5004942;28;20053;-81
2021/11/08 10:06:31;;;;;;;11.73;4.75;;;;;;;11.32;59.50;97265.91;5003938;28;20054;-85
2021/11/08 10:08:58;;;;;;;13.80;4.65;;;;;;;11.27;60.50;97260.38;5003577;28;20521;-82
2021/11/08 10:11:27;;;;;;;12.57;4.30;;;;;;;11.22;63.38;97255.69;5007727;28;20145;-88
2021/11/08 10:13:55;;;;;;;16.08;4.60;;;;;;;11.20;62.65;97260.25;5008782;28;20057;-87
2021/11/08 10:16:27;;;;;;;15.27;5.28;;;;;;;11.15;63.03;97265.19;5007899;28;20043;-88
2021/11/08 10:18:57;;;;;;;10.90;5.33;;;;;;;11.12;62.52;97266.31;5008529;28;20042;-83
2021/11/08 10:21:28;;;;;;;11.13;4.40;;;;;;;11.01;60.22;97261.44;5007347;28;20137;-83
2021/11/08 10:24:00;;;;;;;14.13;5.07;;;;;;;10.88;60.78;97269.00;5005169;28;20049;-88
2021/11/08 10:26:30;;;;;;;8.98;4.25;;;;;;;10.75;61.63;97261.69;5009507;28;20046;-86
2021/11/08 10:28:59;;;;;;;9.18;5.10;;;;;;;10.66;63.65;97255.66;5017608;28;20102;-83
2021/11/08 10:31:29;;;;;;;11.88;5.30;;;;;;;10.65;66.32;97254.06;5004863;28;20054;-86
2021/11/08 10:33:59;;;;;;;12.77;4.82;;;;;;;10.81;64.02;97257.59;5017359;28;20057;-84
2021/11/08 10:36:26;;;;;;;8.50;4.43;;;;;;;11.04;65.41;97263.75;5026036;28;20060;-83
2021/11/08 10:38:59;;;;;;;9.52;3.80;;;;;;;11.27;60.57;97263.00;5025670;28;20050;-85
2021/11/08 10:41:30;;;;;;;10.60;3.30;;;;;;;11.52;61.68;97261.91;5023899;28;20069;-84
2021/11/08 10:44:04;;;;;;;8.13;3.75;;;;;;;11.85;62.57;97253.03;5007268;28;20440;-85
2021/11/08 10:46:35;;;;;;;9.90;3.10;;;;;;;12.25;62.25;97262.44;5004961;28;20046;-80
2021/11/08 10:49:06;;;;;;;11.93;4.25;;;;;;;12.62;60.97;97260.00;5004027;28;20492;-83
2021/11/08 10:51:36;;;;;;;9.80;3.60;;;;;;;12.86;57.10;97262.38;5001952;28;20666;-83
2021/11/08 10:54:08;;;;;;;8.70;3.67;;;;;;;12.85;54.61;97260.72;5001530;28;20069;-83
2021/11/08 10:56:41;;;;;;;9.50;3.00;;;;;;;12.76;58.78;97270.47;5007040;28;20051;-83
2021/11/08 10:59:12;;;;;;;13.27;3.72;;;;;;;12.63;55.51;97264.25;5006220;28;20296;-83
2021/11/08 11:01:43;;;;;;;9.18;3.25;;;;;;;12.45;55.21;97267.19;5006016;28;20137;-87
2021/11/08 11:07:14;;;;;;;8.88;2.70;;;;;;;12.20;56.23;97270.00;4999788;28;20056;-76
2021/11/08 11:09:43;;;;;;;10.40;3.25;;;;;;;12.12;57.00;97270.06;4999302;28;20394;-77
2021/11/08 11:12:14;;;;;;;7.80;2.95;;;;;;;12.33;59.83;97275.47;4998909;28;20058;-77
2021/11/08 11:14:44;;;;;;;10.20;3.22;;;;;;;12.67;56.50;97271.56;4998455;28;20054;-79
2021/11/08 11:17:15;;;;;;;10.43;3.17;;;;;;;12.98;53.60;97267.97;4997295;28;20531;-78
2021/11/08 11:19:43;;;;;;;7.90;3.28;;;;;;;13.11;53.13;97267.34;4996253;28;20046;-76
2021/11/08 11:22:15;;;;;;;9.38;4.07;;;;;;;13.25;54.22;97253.44;4996531;28;20050;-75
2021/11/08 11:24:47;;;;;;;13.90;3.53;;;;;;;13.48;52.53;97258.56;4996228;28;20054;-77
2021/11/08 11:27:17;;;;;;;12.48;3.85;;;;;;;13.73;51.72;97252.97;4995856;28;20051;-78
2021/11/08 11:29:46;;;;;;;9.63;3.65;;;;;;;13.83;51.63;97256.13;4995083;28;20230;-76
2021/11/08 11:32:21;;;;;;;8.18;2.55;;;;;;;13.78;49.80;97253.25;4996768;28;20050;-78
2021/11/08 11:34:49;;;;;;;8.93;2.70;;;;;;;13.62;50.50;97253.47;5013060;28;20061;-77
2021/11/08 11:37:20;;;;;;;7.22;2.40;;;;;;;13.41;50.09;97262.94;4995639;28;20047;-76
2021/11/08 11:39:50;;;;;;;5.45;2.55;;;;;;;13.15;50.10;97261.56;4994455;28;20046;-78
2021/11/08 11:42:18;;;;;;;6.30;2.92;;;;;;;12.84;50.73;97255.69;4994957;28;20061;-77
2021/11/08 11:44:48;;;;;;;11.05;3.22;;;;;;;12.58;52.00;97262.16;4995931;28;20472;-82
2021/11/08 11:47:18;;;;;;;7.85;2.50;;;;;;;12.35;52.83;97262.19;5001059;28;20050;-87
2021/11/08 11:49:46;;;;;;;8.73;3.38;;;;;;;12.19;54.78;97262.34;5001229;28;20664;-81
2021/11/08 11:52:14;;;;;;;8.40;3.92;;;;;;;12.02;53.52;97261.63;5004324;28;20416;-80
2021/11/08 11:54:41;;;;;;;9.05;3.95;;;;;;;11.83;54.51;97258.47;5004312;28;20054;-79
2021/11/08 11:57:10;;;;;;;9.00;3.22;;;;;;;11.73;58.39;97257.88;4993471;28;20054;-87
2021/11/08 11:59:43;;;;;;;8.75;2.95;;;;;;;11.69;58.36;97253.97;5007734;28;20489;-81
2021/11/08 12:02:10;;;;;;;6.40;2.85;;;;;;;11.67;58.32;97255.94;5002202;28;20057;-79
2021/11/08 12:04:38;;;;;;;10.02;2.95;;;;;;;11.64;57.19;97253.69;5000774;28;20057;-78
2021/11/08 12:07:10;;;;;;;8.80;3.58;;;;;;;11.51;56.25;97251.63;4998932;28;20050;-78
2021/11/08 12:09:38;;;;;;;8.82;3.85;;;;;;;11.36;56.31;97251.53;4998686;28;20568;-78
2021/11/08 12:12:07;;;;;;;14.13;4.45;;;;;;;11.21;57.29;97253.22;4998098;28;20128;-77
2021/11/08 12:14:38;;;;;;;11.43;4.05;;;;;;;11.08;57.21;97254.56;4996157;28;20054;-80
2021/11/08 12:17:08;;;;;;;11.98;4.43;;;;;;;10.95;57.45;97254.28;4995365;28;20058;-77
2021/11/08 12:19:38;;;;;;;9.00;4.03;;;;;;;10.88;57.47;97248.13;4996894;28;20493;-80
2021/11/08 12:22:14;;;;;;;12.55;4.07;;;;;;;10.81;57.72;97252.38;5002114;28;20061;-79
2021/11/08 12:24:44;;;;;;;10.85;4.63;;;;;;;10.69;58.18;97255.34;5001807;28;20050;-78
2021/11/08 12:27:13;;;;;;;10.95;4.70;;;;;;;10.59;58.39;97246.88;5001603;28;20539;-80
2021/11/08 12:29:50;;;;;;;13.68;5.13;;;;;;;10.47;58.63;97249.03;5000263;28;20081;-80
2021/11/08 12:32:18;;;;;;;8.38;4.78;;;;;;;10.38;59.52;97246.56;5000230;28;20057;-78
2021/11/08 12:34:47;;;;;;;12.38;4.28;;;;;;;10.30;58.56;97237.78;5001057;28;20069;-81
2021/11/08 12:37:16;;;;;;;9.27;3.72;;;;;;;10.16;58.31;97235.78;5001120;28;20050;-80
2021/11/08 12:39:55;;;;;;;9.85;4.35;;;;;;;10.03;58.62;97244.09;5000479;28;20416;-78
2021/11/08 12:42:23;;;;;;;16.50;4.63;;;;;;;9.92;58.92;97239.22;5001075;28;20405;-79
2021/11/08 12:44:52;;;;;;;14.20;4.45;;;;;;;9.86;59.15;97243.28;5000526;28;20047;-79
2021/11/08 12:47:31;;;;;;;14.50;4.53;;;;;;;9.86;59.38;97238.09;5000418;28;20567;-80
2021/11/08 12:49:59;;;;;;;10.65;3.97;;;;;;;9.85;59.61;97236.44;4999946;28;20422;-78
2021/11/08 12:52:31;;;;;;;7.13;3.55;;;;;;;9.85;59.64;97239.03;4999806;28;20057;-81
2021/11/08 12:55:06;;;;;;;10.00;3.10;;;;;;;9.83;59.98;97227.97;4999341;28;20050;-79
2021/11/08 12:57:36;;;;;;;10.48;3.97;;;;;;;9.85;60.61;97225.19;4999183;28;20058;-85
2021/11/08 13:00:18;;;;;;;8.60;3.65;;;;;;;9.85;59.46;97236.44;4997840;28;20042;-82
2021/11/08 13:02:54;;;;;;;11.80;3.42;;;;;;;9.78;59.65;97225.03;4997712;28;20050;-81
2021/11/08 13:05:28;;;;;;;12.32;4.55;;;;;;;9.73;59.16;97232.53;4997869;28;20442;-79
2021/11/08 13:07:57;;;;;;;7.80;3.30;;;;;;;9.75;61.44;97237.56;4996973;28;20409;-80
2021/11/08 13:10:28;;;;;;;7.18;3.65;;;;;;;9.74;59.47;97234.16;4996482;28;20050;-81